Decoded Metar for PATK (TALKEETNA in AK, USA) (IATA:TKA) | Meteo·Mobile Aviation Weather
aviador You're here:

PATK Decoded Metar

TALKEETNA in AK, USA
Report Time2019-05-22 06:53:00
UTC Time2019-05-22 07:26:44
Flight Rules vfr VFR
Wind170° at 08 kt
W.Decomp.*RWY 18: 7.0 kt HW 3.9 kt LCW
Visibility9999 m
Phenomena:N/A
Clouds:N/A
Expected CloudBase > 4,400 ft AGL from Temp-Dew spread
CeilingNone
Temp15°C (ISA +1)
Dew Point04°C (48% RH)
AAT10.8°C
QNH1018 hPa
Density Alt387 ft
Elevation358 ft
Report Wrong Elevation
Raw Report
PATK 220653Z AUTO 17008KT 10SM CLR 15/04 A3005 RMK AO2 SLP178
T01500044 TSNO $=

Extra information for PATK:More info

Metar Taf Metar & Taf Last 4 Metars F.Rules Stats Wind Profile Meteogram Temp Stats Airport Information Weather charts Add Link Nearby VenuesMetar ALERT Operation Metar Decoded Social comments

AIRNAV info for PATK